Time;durP1;ratioP1;P1;durP2;ratioP2;P2;SDS_P1;SDS_P2;PMS_P1;PMS_P2;Temp;Humidity;BMP_temperature;BMP_pressure;BME280_temperature;BME280_humidity;BME280_pressure;Samples;Min_cycle;Max_cycle;Signal;HPM_P1;HPM_P2
2022/01/04 00:00:12;;;;;;;14.88;7.38;;;;;;;;;;5101349;28;20024;-71
2022/01/04 00:02:38;;;;;;;13.63;3.70;;;;;;;;;;5101080;28;20008;-71
2022/01/04 00:05:04;;;;;;;18.48;7.07;;;;;;;;;;5101570;28;20016;-71
2022/01/04 00:07:30;;;;;;;19.98;5.18;;;;;;;;;;5101758;28;20024;-71
2022/01/04 00:09:56;;;;;;;19.40;4.05;;;;;;;;;;5100642;28;20025;-70
2022/01/04 00:15:06;;;;;;;;;;;;;;;;;;5101617;28;20035;-71
2022/01/04 00:17:31;;;;;;;8.80;2.75;;;;;;;;;;5101321;28;19896;-71
2022/01/04 00:19:56;;;;;;;16.58;3.50;;;;;;;;;;5100331;28;20033;-72
2022/01/04 00:22:22;;;;;;;21.17;3.40;;;;;;;;;;5100895;28;20035;-71
2022/01/04 00:24:47;;;;;;;9.32;2.63;;;;;;;;;;5101446;28;20016;-71
2022/01/04 00:27:13;;;;;;;13.57;2.28;;;;;;;;;;5101206;28;20016;-71
2022/01/04 00:29:38;;;;;;;13.55;2.72;;;;;;;;;;5101209;28;20008;-70
2022/01/04 00:32:04;;;;;;;15.07;2.70;;;;;;;;;;5101122;28;20012;-71
2022/01/04 00:34:29;;;;;;;17.13;3.35;;;;;;;;;;5101077;28;20032;-70
2022/01/04 00:36:55;;;;;;;7.95;2.70;;;;;;;;;;5100916;28;20081;-71
2022/01/04 00:39:20;;;;;;;28.83;4.55;;;;;;;;;;5100946;28;20016;-71
2022/01/04 00:41:46;;;;;;;13.77;3.17;;;;;;;;;;5101029;28;20028;-71
2022/01/04 00:44:11;;;;;;;12.80;4.15;;;;;;;;;;5100214;28;20028;-71
2022/01/04 00:46:37;;;;;;;13.43;2.70;;;;;;;;;;5100398;28;20024;-71
2022/01/04 00:49:09;;;;;;;16.50;2.75;;;;;;;;;;5101017;28;20017;-71
2022/01/04 00:51:34;;;;;;;19.27;5.82;;;;;;;;;;5100797;28;20080;-71
2022/01/04 00:54:00;;;;;;;15.30;3.08;;;;;;;;;;5100768;28;20012;-71
2022/01/04 00:56:25;;;;;;;11.07;2.42;;;;;;;;;;5100875;28;20021;-71
2022/01/04 00:58:50;;;;;;;14.88;2.83;;;;;;;;;;5100809;28;20074;-71
2022/01/04 01:01:16;;;;;;;12.38;2.58;;;;;;;;;;5100573;28;20021;-71
2022/01/04 01:03:41;;;;;;;9.32;2.83;;;;;;;;;;5100518;28;20020;-71
2022/01/04 01:06:07;;;;;;;19.15;2.95;;;;;;;;;;5100592;28;20033;-72
2022/01/04 01:08:33;;;;;;;13.75;2.95;;;;;;;;;;5100318;28;20000;-71
2022/01/04 01:10:58;;;;;;;10.23;3.20;;;;;;;;;;5100595;28;20042;-71
2022/01/04 01:13:24;;;;;;;8.85;2.30;;;;;;;;;;5100537;28;20011;-71
2022/01/04 01:15:49;;;;;;;17.85;3.13;;;;;;;;;;5100562;28;20076;-71
2022/01/04 01:18:16;;;;;;;16.77;3.08;;;;;;;;;;5100549;28;20031;-71
2022/01/04 01:20:42;;;;;;;13.15;3.58;;;;;;;;;;5100049;28;20012;-71
2022/01/04 01:23:07;;;;;;;12.68;2.58;;;;;;;;;;5100544;28;20027;-71
2022/01/04 01:25:33;;;;;;;11.27;2.38;;;;;;;;;;5100254;28;20076;-72
2022/01/04 01:27:59;;;;;;;11.68;2.60;;;;;;;;;;5099335;28;20013;-71
2022/01/04 01:30:25;;;;;;;17.05;1.90;;;;;;;;;;5100092;28;20008;-71
2022/01/04 01:32:51;;;;;;;15.05;2.95;;;;;;;;;;5099959;28;20008;-71
2022/01/04 01:35:17;;;;;;;14.57;3.75;;;;;;;;;;5099197;28;20103;-71
2022/01/04 01:37:42;;;;;;;11.30;2.35;;;;;;;;;;5099630;28;20028;-72
2022/01/04 01:40:08;;;;;;;16.02;2.65;;;;;;;;;;5099050;28;20036;-71
2022/01/04 01:42:34;;;;;;;9.13;2.10;;;;;;;;;;5099575;28;20032;-71
2022/01/04 01:44:59;;;;;;;27.58;3.97;;;;;;;;;;5099668;28;20032;-71
2022/01/04 01:47:25;;;;;;;5.93;1.88;;;;;;;;;;5099855;28;20020;-71
2022/01/04 01:49:50;;;;;;;12.52;2.50;;;;;;;;;;5099671;28;20038;-71
2022/01/04 01:52:17;;;;;;;15.07;2.10;;;;;;;;;;5098926;28;20013;-71
2022/01/04 01:54:42;;;;;;;21.63;3.13;;;;;;;;;;5098176;28;20012;-71
2022/01/04 01:57:08;;;;;;;16.48;3.05;;;;;;;;;;5099197;28;20091;-71
2022/01/04 01:59:33;;;;;;;13.23;2.45;;;;;;;;;;5099696;28;20020;-71
2022/01/04 02:01:59;;;;;;;12.88;2.10;;;;;;;;;;5099647;28;20040;-71
2022/01/04 02:04:24;;;;;;;11.15;2.08;;;;;;;;;;5099596;28;20012;-71
2022/01/04 02:06:50;;;;;;;17.65;1.75;;;;;;;;;;5099228;28;20220;-71
2022/01/04 02:09:15;;;;;;;11.70;2.42;;;;;;;;;;5098745;28;20022;-71
2022/01/04 02:11:42;;;;;;;22.45;4.22;;;;;;;;;;5098987;28;20036;-71
2022/01/04 02:14:07;;;;;;;17.48;2.75;;;;;;;;;;5099310;28;20076;-72
2022/01/04 02:16:32;;;;;;;19.13;3.00;;;;;;;;;;5099141;28;20012;-72
2022/01/04 02:19:07;;;;;;;16.42;2.55;;;;;;;;;;5099108;28;20034;-71
2022/01/04 02:21:34;;;;;;;8.55;2.15;;;;;;;;;;5098517;28;20032;-72
2022/01/04 02:24:00;;;;;;;21.25;2.45;;;;;;;;;;5098929;28;20013;-71
2022/01/04 02:26:29;;;;;;;16.45;2.00;;;;;;;;;;5115349;28;20087;-71
2022/01/04 02:28:54;;;;;;;9.50;1.83;;;;;;;;;;5099173;28;20020;-71
2022/01/04 02:31:21;;;;;;;8.82;2.10;;;;;;;;;;5099008;28;20013;-71
2022/01/04 02:33:46;;;;;;;11.93;2.30;;;;;;;;;;5099003;28;20107;-71
2022/01/04 02:36:11;;;;;;;10.98;2.17;;;;;;;;;;5099000;28;20040;-71
2022/01/04 02:38:37;;;;;;;13.50;2.20;;;;;;;;;;5098765;28;20024;-71
2022/01/04 02:41:03;;;;;;;6.22;1.73;;;;;;;;;;5098429;28;20012;-72
2022/01/04 02:43:30;;;;;;;8.70;1.80;;;;;;;;;;5098667;28;20028;-71
2022/01/04 02:45:55;;;;;;;10.68;1.95;;;;;;;;;;5098653;28;20042;-71
2022/01/04 02:48:21;;;;;;;12.27;2.22;;;;;;;;;;5098828;28;20017;-71
2022/01/04 02:50:47;;;;;;;14.70;2.08;;;;;;;;;;5098670;28;20020;-71
2022/01/04 02:53:12;;;;;;;16.20;2.85;;;;;;;;;;5098820;28;20004;-71
2022/01/04 02:55:37;;;;;;;14.60;2.63;;;;;;;;;;5097992;28;20004;-71
2022/01/04 02:58:03;;;;;;;12.70;2.30;;;;;;;;;;5098255;28;20071;-71
2022/01/04 03:00:28;;;;;;;14.85;2.95;;;;;;;;;;5098461;28;20008;-70
2022/01/04 03:02:54;;;;;;;17.88;2.13;;;;;;;;;;5097501;28;20039;-71
2022/01/04 03:05:19;;;;;;;11.27;1.65;;;;;;;;;;5097773;28;20009;-71
2022/01/04 03:07:45;;;;;;;5.85;1.85;;;;;;;;;;5098112;28;20009;-71
2022/01/04 03:10:10;;;;;;;15.13;2.13;;;;;;;;;;5098400;28;20013;-71
2022/01/04 03:12:39;;;;;;;13.02;1.75;;;;;;;;;;5098433;28;20032;-71
2022/01/04 03:15:05;;;;;;;12.75;2.22;;;;;;;;;;5098244;28;20030;-71
2022/01/04 03:17:30;;;;;;;10.57;2.25;;;;;;;;;;5097553;28;20065;-70
2022/01/04 03:19:56;;;;;;;14.00;2.45;;;;;;;;;;5097459;28;20025;-71
2022/01/04 03:22:21;;;;;;;9.95;2.35;;;;;;;;;;5097966;28;20029;-71
2022/01/04 03:24:46;;;;;;;18.08;3.05;;;;;;;;;;5097555;28;20024;-71
2022/01/04 03:27:13;;;;;;;4.60;1.52;;;;;;;;;;5098063;28;20035;-70
2022/01/04 03:29:38;;;;;;;8.80;2.10;;;;;;;;;;5098143;28;20041;-70
2022/01/04 03:32:04;;;;;;;12.52;2.35;;;;;;;;;;5097627;28;20020;-71
2022/01/04 03:34:29;;;;;;;14.38;1.50;;;;;;;;;;5098155;28;20015;-70
2022/01/04 03:36:55;;;;;;;10.65;2.10;;;;;;;;;;5097755;28;20048;-71
2022/01/04 03:39:20;;;;;;;6.55;2.10;;;;;;;;;;5097821;28;20016;-70
2022/01/04 03:41:46;;;;;;;16.98;1.88;;;;;;;;;;5098117;28;20038;-70
2022/01/04 03:44:19;;;;;;;12.90;2.08;;;;;;;;;;5097832;28;20005;-70
2022/01/04 03:46:50;;;;;;;17.77;2.17;;;;;;;;;;5097889;28;20157;-70
2022/01/04 03:49:16;;;;;;;6.40;1.13;;;;;;;;;;5097980;28;20020;-70
2022/01/04 03:51:41;;;;;;;8.88;1.50;;;;;;;;;;5098050;28;20023;-71
2022/01/04 03:54:07;;;;;;;10.88;2.15;;;;;;;;;;5097826;28;20027;-70
2022/01/04 03:56:32;;;;;;;19.13;2.28;;;;;;;;;;5097727;28;20213;-70
2022/01/04 03:58:58;;;;;;;12.25;1.98;;;;;;;;;;5097590;28;20047;-71
2022/01/04 04:01:24;;;;;;;13.18;3.05;;;;;;;;;;5098057;28;20242;-71
2022/01/04 04:03:49;;;;;;;10.25;1.58;;;;;;;;;;5097506;28;20028;-70
2022/01/04 04:06:14;;;;;;;11.82;1.73;;;;;;;;;;5097858;28;20009;-70
2022/01/04 04:08:40;;;;;;;15.05;1.90;;;;;;;;;;5097770;28;20068;-71
2022/01/04 04:11:05;;;;;;;10.77;1.88;;;;;;;;;;5097835;28;20036;-70
2022/01/04 04:13:31;;;;;;;9.27;1.40;;;;;;;;;;5096483;28;20009;-70
2022/01/04 04:15:59;;;;;;;18.40;1.90;;;;;;;;;;5097736;28;20076;-71
2022/01/04 04:18:25;;;;;;;13.38;2.15;;;;;;;;;;5098352;28;20015;-71
2022/01/04 04:20:50;;;;;;;6.03;0.95;;;;;;;;;;5100344;28;20020;-71
2022/01/04 04:23:15;;;;;;;9.00;1.80;;;;;;;;;;5101034;28;20028;-70
2022/01/04 04:25:41;;;;;;;17.77;1.83;;;;;;;;;;5101416;28;20065;-70
2022/01/04 04:28:07;;;;;;;8.15;2.00;;;;;;;;;;5101084;28;20040;-70
2022/01/04 04:30:33;;;;;;;20.75;2.33;;;;;;;;;;5101024;28;20040;-71
2022/01/04 04:32:59;;;;;;;10.65;1.73;;;;;;;;;;5101139;28;20012;-70
2022/01/04 04:35:24;;;;;;;3.13;0.90;;;;;;;;;;5101013;28;20044;-70
2022/01/04 04:37:49;;;;;;;13.73;1.50;;;;;;;;;;5100869;28;20021;-71
2022/01/04 04:40:15;;;;;;;6.80;0.93;;;;;;;;;;5100884;28;20023;-71
2022/01/04 04:42:40;;;;;;;12.75;1.88;;;;;;;;;;5100925;28;20017;-70
2022/01/04 04:45:07;;;;;;;7.15;1.45;;;;;;;;;;5100953;28;20016;-70
2022/01/04 04:47:33;;;;;;;7.82;1.45;;;;;;;;;;5101016;28;20027;-71
2022/01/04 04:49:58;;;;;;;10.43;1.40;;;;;;;;;;5100699;28;20016;-71
2022/01/04 04:52:24;;;;;;;8.82;1.40;;;;;;;;;;5100140;28;20009;-70
2022/01/04 04:54:49;;;;;;;11.13;2.08;;;;;;;;;;5100816;28;20060;-71
2022/01/04 04:57:15;;;;;;;10.23;1.65;;;;;;;;;;5100896;28;20016;-71
2022/01/04 04:59:41;;;;;;;11.18;2.25;;;;;;;;;;5100362;28;20074;-71
2022/01/04 05:02:07;;;;;;;9.98;2.25;;;;;;;;;;5099860;28;20051;-70
2022/01/04 05:04:36;;;;;;;6.60;1.30;;;;;;;;;;5100334;28;20009;-71
2022/01/04 05:07:02;;;;;;;6.10;1.23;;;;;;;;;;5100396;28;20034;-71
2022/01/04 05:09:28;;;;;;;6.72;1.30;;;;;;;;;;5100244;28;20016;-71
2022/01/04 05:11:53;;;;;;;6.85;1.27;;;;;;;;;;5100296;28;20024;-70
2022/01/04 05:14:19;;;;;;;6.60;0.82;;;;;;;;;;5100240;28;20015;-70
2022/01/04 05:16:44;;;;;;;6.00;1.27;;;;;;;;;;5099884;28;20020;-69
2022/01/04 05:19:10;;;;;;;5.10;1.35;;;;;;;;;;5100135;28;20016;-70
2022/01/04 05:21:35;;;;;;;3.25;0.80;;;;;;;;;;5099853;28;20027;-70
2022/01/04 05:24:01;;;;;;;3.45;0.75;;;;;;;;;;5099277;28;20034;-70
2022/01/04 05:26:26;;;;;;;2.85;0.45;;;;;;;;;;5099755;28;20036;-71
2022/01/04 05:28:52;;;;;;;4.93;0.70;;;;;;;;;;5099069;28;20024;-71
2022/01/04 05:31:17;;;;;;;1.92;0.60;;;;;;;;;;5098975;28;20016;-70
2022/01/04 05:33:43;;;;;;;4.68;0.60;;;;;;;;;;5098970;28;20076;-71
2022/01/04 05:36:08;;;;;;;3.75;0.40;;;;;;;;;;5099506;28;20008;-71
2022/01/04 05:38:34;;;;;;;3.25;0.43;;;;;;;;;;5099813;28;20033;-71
2022/01/04 05:40:59;;;;;;;3.67;0.52;;;;;;;;;;5099585;28;20016;-71
2022/01/04 05:43:25;;;;;;;2.75;0.50;;;;;;;;;;5098687;28;20031;-71
2022/01/04 05:45:51;;;;;;;3.75;0.43;;;;;;;;;;5099468;28;20013;-70
2022/01/04 05:48:20;;;;;;;4.65;0.60;;;;;;;;;;5099306;28;20024;-71
2022/01/04 05:50:45;;;;;;;4.32;0.50;;;;;;;;;;5099629;28;20013;-71
2022/01/04 05:53:10;;;;;;;4.85;0.63;;;;;;;;;;5099668;28;20009;-71
2022/01/04 05:55:36;;;;;;;4.13;0.60;;;;;;;;;;5099593;28;20035;-71
2022/01/04 05:58:02;;;;;;;3.28;0.50;;;;;;;;;;5115703;28;20009;-70
2022/01/04 06:00:27;;;;;;;7.15;0.60;;;;;;;;;;5099259;28;20013;-71
2022/01/04 06:02:53;;;;;;;2.60;0.57;;;;;;;;;;5099239;28;20017;-70
2022/01/04 06:05:18;;;;;;;4.13;0.65;;;;;;;;;;5099425;28;20072;-70
2022/01/04 06:07:44;;;;;;;1.90;0.50;;;;;;;;;;5099463;28;20047;-70
2022/01/04 06:10:11;;;;;;;3.80;0.68;;;;;;;;;;5099401;28;20012;-70
2022/01/04 06:15:09;;;;;;;6.75;0.60;;;;;;;;;;5099182;28;20080;-70
2022/01/04 06:17:38;;;;;;;4.85;0.90;;;;;;;;;;5099049;28;20038;-71
2022/01/04 06:20:06;;;;;;;4.07;0.50;;;;;;;;;;5098888;28;20031;-71
2022/01/04 06:22:32;;;;;;;4.35;0.80;;;;;;;;;;5098683;28;20044;-71
2022/01/04 06:24:57;;;;;;;4.85;0.82;;;;;;;;;;5099172;28;20012;-70
2022/01/04 06:27:23;;;;;;;1.27;0.32;;;;;;;;;;5098158;28;20027;-69
2022/01/04 06:29:49;;;;;;;3.58;0.40;;;;;;;;;;5098906;28;20004;-71
2022/01/04 06:32:16;;;;;;;9.18;0.98;;;;;;;;;;5098556;28;20038;-71
2022/01/04 06:34:42;;;;;;;3.95;0.60;;;;;;;;;;5098915;28;20011;-71
2022/01/04 06:37:11;;;;;;;3.40;0.73;;;;;;;;;;5097834;28;20024;-72
2022/01/04 06:39:37;;;;;;;3.78;0.70;;;;;;;;;;5098558;28;20028;-71
2022/01/04 06:42:03;;;;;;;3.22;0.50;;;;;;;;;;5098004;28;20161;-70
2022/01/04 06:44:29;;;;;;;2.58;0.60;;;;;;;;;;5098144;28;20013;-71
2022/01/04 06:46:54;;;;;;;6.65;0.80;;;;;;;;;;5098152;28;20084;-71
2022/01/04 06:49:20;;;;;;;2.65;0.40;;;;;;;;;;5098654;28;20046;-71
2022/01/04 06:51:47;;;;;;;4.00;0.70;;;;;;;;;;5098331;28;20020;-71
2022/01/04 06:54:14;;;;;;;0.93;0.40;;;;;;;;;;5098569;28;20012;-71
2022/01/04 06:56:40;;;;;;;4.43;1.00;;;;;;;;;;5098119;28;20070;-71
2022/01/04 06:59:07;;;;;;;2.75;0.60;;;;;;;;;;5098328;28;20145;-71
2022/01/04 07:01:34;;;;;;;2.70;0.50;;;;;;;;;;5098095;28;20031;-71
2022/01/04 07:04:00;;;;;;;1.60;0.50;;;;;;;;;;5098242;28;20009;-71
2022/01/04 07:06:25;;;;;;;2.92;0.77;;;;;;;;;;5098081;28;20042;-71
2022/01/04 07:08:51;;;;;;;3.20;0.50;;;;;;;;;;5098172;28;20008;-71
2022/01/04 07:11:16;;;;;;;6.20;0.73;;;;;;;;;;5098084;28;20043;-71
2022/01/04 07:13:42;;;;;;;8.45;1.38;;;;;;;;;;5098528;28;20017;-71
2022/01/04 07:16:07;;;;;;;3.63;0.52;;;;;;;;;;5097709;28;20039;-70
2022/01/04 07:18:33;;;;;;;4.15;0.57;;;;;;;;;;5097127;28;20027;-71
2022/01/04 07:20:58;;;;;;;4.82;0.75;;;;;;;;;;5097669;28;20031;-71
2022/01/04 07:23:24;;;;;;;3.13;0.50;;;;;;;;;;5097523;28;20019;-71
2022/01/04 07:25:50;;;;;;;2.72;0.50;;;;;;;;;;5097892;28;20028;-71
2022/01/04 07:28:15;;;;;;;4.15;0.95;;;;;;;;;;5097847;28;20008;-71
2022/01/04 07:30:40;;;;;;;3.22;0.60;;;;;;;;;;5098025;28;20020;-71
2022/01/04 07:33:06;;;;;;;4.85;0.63;;;;;;;;;;5097202;28;20025;-71
2022/01/04 07:35:31;;;;;;;4.70;0.80;;;;;;;;;;5098206;28;20042;-71
2022/01/04 07:37:57;;;;;;;3.70;0.80;;;;;;;;;;5097879;28;20029;-71
2022/01/04 07:40:22;;;;;;;3.17;0.65;;;;;;;;;;5098014;28;20024;-71
2022/01/04 07:42:48;;;;;;;4.47;0.63;;;;;;;;;;5098175;28;20023;-71
2022/01/04 07:45:14;;;;;;;5.60;0.73;;;;;;;;;;5098051;28;20008;-71
2022/01/04 07:47:41;;;;;;;3.45;0.70;;;;;;;;;;5098064;28;20024;-71
2022/01/04 07:50:08;;;;;;;4.55;0.73;;;;;;;;;;5097955;28;20028;-70
2022/01/04 07:52:34;;;;;;;8.68;1.05;;;;;;;;;;5098314;28;20100;-71
2022/01/04 07:55:01;;;;;;;3.08;0.63;;;;;;;;;;5101749;28;20043;-71
2022/01/04 07:57:26;;;;;;;5.20;0.75;;;;;;;;;;5101823;28;20012;-71
2022/01/04 07:59:51;;;;;;;6.38;0.50;;;;;;;;;;5101000;28;20021;-71
2022/01/04 08:02:17;;;;;;;5.07;0.60;;;;;;;;;;5101926;28;20043;-71
2022/01/04 08:04:42;;;;;;;4.63;0.70;;;;;;;;;;5101419;28;20019;-71
2022/01/04 08:07:08;;;;;;;6.72;1.08;;;;;;;;;;5101427;28;20025;-71
2022/01/04 08:09:33;;;;;;;7.38;0.98;;;;;;;;;;5101617;28;20079;-71
2022/01/04 08:11:58;;;;;;;7.05;1.13;;;;;;;;;;5101387;28;20012;-72
2022/01/04 08:14:24;;;;;;;8.18;0.68;;;;;;;;;;5101503;28;20008;-71
2022/01/04 08:16:51;;;;;;;4.70;0.70;;;;;;;;;;5101192;28;20076;-71
2022/01/04 08:19:16;;;;;;;4.80;0.77;;;;;;;;;;5100785;28;20084;-71
2022/01/04 08:21:42;;;;;;;2.58;0.45;;;;;;;;;;5100778;28;20024;-71
2022/01/04 08:24:07;;;;;;;7.22;1.65;;;;;;;;;;5100721;28;20044;-71
2022/01/04 08:26:33;;;;;;;2.67;0.57;;;;;;;;;;5100532;28;20043;-71
2022/01/04 08:28:58;;;;;;;4.25;0.60;;;;;;;;;;5101311;28;20008;-71
2022/01/04 08:31:24;;;;;;;2.80;0.60;;;;;;;;;;5101544;28;20013;-71
2022/01/04 08:33:50;;;;;;;2.90;0.82;;;;;;;;;;5100524;28;20072;-71
2022/01/04 08:36:15;;;;;;;3.80;0.70;;;;;;;;;;5101053;28;20016;-71
2022/01/04 08:38:41;;;;;;;4.65;0.57;;;;;;;;;;5100858;28;20074;-71
2022/01/04 08:41:06;;;;;;;3.47;0.60;;;;;;;;;;5101107;28;20024;-71
2022/01/04 08:43:32;;;;;;;2.90;0.60;;;;;;;;;;5100648;28;20016;-70
2022/01/04 08:45:58;;;;;;;1.35;0.47;;;;;;;;;;5117146;28;20017;-71
2022/01/04 08:48:23;;;;;;;7.95;0.98;;;;;;;;;;5100719;28;20043;-70
2022/01/04 08:50:49;;;;;;;3.60;0.70;;;;;;;;;;5100865;28;20021;-71
2022/01/04 08:53:15;;;;;;;9.20;0.98;;;;;;;;;;5100946;28;20023;-71
2022/01/04 08:55:40;;;;;;;7.35;0.93;;;;;;;;;;5100348;28;20067;-71
2022/01/04 08:58:06;;;;;;;8.73;1.20;;;;;;;;;;5100576;28;20035;-71
2022/01/04 09:00:32;;;;;;;5.25;0.70;;;;;;;;;;5100206;28;20042;-71
2022/01/04 09:02:59;;;;;;;8.90;0.90;;;;;;;;;;5099474;28;20016;-72
2022/01/04 09:05:25;;;;;;;8.57;0.90;;;;;;;;;;5100241;28;20060;-71
2022/01/04 09:07:51;;;;;;;3.47;0.73;;;;;;;;;;5100614;28;20047;-71
2022/01/04 09:10:17;;;;;;;8.88;1.17;;;;;;;;;;5100525;28;20020;-71
2022/01/04 09:12:55;;;;;;;3.85;1.13;;;;;;;;;;5100389;28;20012;-72
2022/01/04 09:15:31;;;;;;;2.95;0.90;;;;;;;;;;5100486;28;20016;-71
2022/01/04 09:20:45;;;;;;;5.53;1.13;;;;;;;;;;5100226;28;20042;-71
2022/01/04 09:23:12;;;;;;;3.70;0.90;;;;;;;;;;5099792;28;20016;-71
2022/01/04 09:25:37;;;;;;;4.72;1.10;;;;;;;;;;5100346;28;20015;-71
2022/01/04 09:28:03;;;;;;;6.40;1.00;;;;;;;;;;5099754;28;20021;-72
2022/01/04 09:30:29;;;;;;;5.43;1.10;;;;;;;;;;5099811;28;20012;-71
2022/01/04 09:32:54;;;;;;;8.05;1.15;;;;;;;;;;5099694;28;20016;-71
2022/01/04 09:35:20;;;;;;;5.35;0.73;;;;;;;;;;5099994;28;20012;-71
2022/01/04 09:37:45;;;;;;;6.60;1.20;;;;;;;;;;5099793;28;20037;-71
2022/01/04 09:40:11;;;;;;;8.82;1.45;;;;;;;;;;5100035;28;20217;-71
2022/01/04 09:42:37;;;;;;;9.30;1.63;;;;;;;;;;5099362;28;20091;-71
2022/01/04 09:45:04;;;;;;;6.53;0.95;;;;;;;;;;5099731;28;20130;-71
2022/01/04 09:47:30;;;;;;;9.85;1.70;;;;;;;;;;5099458;28;20016;-71
2022/01/04 09:49:57;;;;;;;4.10;0.70;;;;;;;;;;5099778;28;20023;-71
2022/01/04 09:52:23;;;;;;;4.18;0.63;;;;;;;;;;5099052;28;20019;-70
2022/01/04 09:54:53;;;;;;;6.25;1.00;;;;;;;;;;5099624;28;20012;-70
2022/01/04 09:57:19;;;;;;;6.05;0.80;;;;;;;;;;5099525;28;20016;-71
2022/01/04 09:59:44;;;;;;;4.85;0.60;;;;;;;;;;5099488;28;20089;-71
2022/01/04 10:02:15;;;;;;;7.65;1.30;;;;;;;;;;5098996;28;20013;-71
2022/01/04 10:04:41;;;;;;;8.73;0.70;;;;;;;;;;5099119;28;20016;-71
2022/01/04 10:07:08;;;;;;;7.68;1.35;;;;;;;;;;5099595;28;20024;-71
2022/01/04 10:09:35;;;;;;;7.15;0.90;;;;;;;;;;5099454;28;20017;-71
2022/01/04 10:12:01;;;;;;;6.82;0.73;;;;;;;;;;5098738;28;20050;-70
2022/01/04 10:14:38;;;;;;;7.07;1.00;;;;;;;;;;5099205;28;20012;-70
2022/01/04 10:17:06;;;;;;;7.28;0.82;;;;;;;;;;5098699;28;20020;-70
2022/01/04 10:19:34;;;;;;;6.53;0.90;;;;;;;;;;5098903;28;20021;-71
2022/01/04 10:22:10;;;;;;;1.63;0.60;;;;;;;;;;5099196;28;20025;-70
2022/01/04 10:24:35;;;;;;;4.85;0.85;;;;;;;;;;5098715;28;20008;-71
2022/01/04 10:27:29;;;;;;;7.70;1.15;;;;;;;;;;5098931;28;20038;-71
2022/01/04 10:30:17;;;;;;;0.98;0.30;;;;;;;;;;5099143;28;20028;-71
2022/01/04 10:32:50;;;;;;;4.53;1.00;;;;;;;;;;5098947;28;20016;-70
2022/01/04 10:35:43;;;;;;;6.45;1.38;;;;;;;;;;5098997;28;20005;-70
2022/01/04 10:38:20;;;;;;;5.88;1.05;;;;;;;;;;5098878;28;20016;-71
2022/01/04 10:40:49;;;;;;;5.60;0.70;;;;;;;;;;5098217;28;20031;-70
2022/01/04 10:43:18;;;;;;;9.32;0.85;;;;;;;;;;5098718;28;20019;-71
2022/01/04 10:45:45;;;;;;;4.32;0.63;;;;;;;;;;5098763;28;20034;-71
2022/01/04 10:48:15;;;;;;;8.93;1.85;;;;;;;;;;5098930;28;20019;-71
2022/01/04 10:50:42;;;;;;;6.70;1.02;;;;;;;;;;5098702;28;20023;-71
2022/01/04 10:53:18;;;;;;;8.55;0.90;;;;;;;;;;5098590;28;20028;-70
2022/01/04 10:55:46;;;;;;;3.70;1.13;;;;;;;;;;5098703;28;20020;-70
2022/01/04 10:58:26;;;;;;;8.70;0.95;;;;;;;;;;5097911;28;20115;-70
2022/01/04 11:00:57;;;;;;;12.98;1.35;;;;;;;;;;5098508;28;20020;-70
2022/01/04 11:03:24;;;;;;;7.90;0.93;;;;;;;;;;5098591;28;20043;-71
2022/01/04 11:05:58;;;;;;;10.15;1.25;;;;;;;;;;5098064;28;20013;-71
2022/01/04 11:08:23;;;;;;;8.98;1.30;;;;;;;;;;5098676;28;20013;-71
2022/01/04 11:10:50;;;;;;;2.83;0.60;;;;;;;;;;5098332;28;20027;-70
2022/01/04 11:13:16;;;;;;;3.95;0.57;;;;;;;;;;5098272;28;20087;-70
2022/01/04 11:15:42;;;;;;;5.07;0.65;;;;;;;;;;5098007;28;20012;-70
2022/01/04 11:18:07;;;;;;;7.30;0.82;;;;;;;;;;5097175;28;20020;-70
2022/01/04 11:20:34;;;;;;;7.25;0.82;;;;;;;;;;5096707;28;20020;-71
2022/01/04 11:23:00;;;;;;;6.65;1.20;;;;;;;;;;5097872;28;20031;-71
2022/01/04 11:25:27;;;;;;;3.83;0.77;;;;;;;;;;5097641;28;20080;-71
2022/01/04 11:27:54;;;;;;;8.82;1.38;;;;;;;;;;5097920;28;20051;-71
2022/01/04 11:30:38;;;;;;;5.15;1.30;;;;;;;;;;5097283;28;20024;-71
2022/01/04 11:33:17;;;;;;;5.70;1.40;;;;;;;;;;5098400;28;20020;-71
2022/01/04 11:35:46;;;;;;;7.25;1.20;;;;;;;;;;5098181;28;20089;-71
2022/01/04 11:38:12;;;;;;;7.35;1.00;;;;;;;;;;5097206;28;20028;-70
2022/01/04 11:40:42;;;;;;;4.80;0.70;;;;;;;;;;5097546;28;20025;-71
2022/01/04 11:43:28;;;;;;;1.90;0.70;;;;;;;;;;5098030;28;20079;-71
2022/01/04 11:45:56;;;;;;;8.60;0.90;;;;;;;;;;5097803;28;20009;-71
2022/01/04 11:48:32;;;;;;;5.03;0.77;;;;;;;;;;5098046;28;20068;-71
2022/01/04 11:51:03;;;;;;;5.90;0.95;;;;;;;;;;5098155;28;20020;-71
2022/01/04 11:53:29;;;;;;;9.00;1.00;;;;;;;;;;5097900;28;20017;-71
2022/01/04 11:56:04;;;;;;;6.05;1.45;;;;;;;;;;5097372;28;20027;-72
2022/01/04 11:58:52;;;;;;;6.55;1.00;;;;;;;;;;5098055;28;20011;-71
2022/01/04 12:01:28;;;;;;;3.22;0.82;;;;;;;;;;5097956;28;20072;-71
2022/01/04 12:03:53;;;;;;;5.93;0.90;;;;;;;;;;5097866;28;20218;-71
2022/01/04 12:06:21;;;;;;;7.63;0.95;;;;;;;;;;5097279;28;20047;-70
2022/01/04 12:08:54;;;;;;;6.55;0.85;;;;;;;;;;5097778;28;20024;-70
2022/01/04 12:11:24;;;;;;;6.15;0.73;;;;;;;;;;5097824;28;20027;-71
2022/01/04 12:13:57;;;;;;;6.05;1.25;;;;;;;;;;5097810;28;20015;-71
2022/01/04 12:16:42;;;;;;;6.75;1.77;;;;;;;;;;5097004;28;20031;-71
2022/01/04 12:19:10;;;;;;;7.03;1.13;;;;;;;;;;5097766;28;20028;-71
2022/01/04 12:21:41;;;;;;;6.68;1.27;;;;;;;;;;5097927;28;20085;-71
2022/01/04 12:24:09;;;;;;;8.63;0.98;;;;;;;;;;5097078;28;20024;-71
2022/01/04 12:26:36;;;;;;;2.08;0.50;;;;;;;;;;5097143;28;20267;-71
2022/01/04 12:29:01;;;;;;;3.28;0.60;;;;;;;;;;5096993;28;20008;-70
2022/01/04 12:31:32;;;;;;;4.45;0.70;;;;;;;;;;5097468;28;20028;-71
2022/01/04 12:34:04;;;;;;;7.85;0.90;;;;;;;;;;5097650;28;20024;-71
2022/01/04 12:36:33;;;;;;;5.22;0.85;;;;;;;;;;5097185;28;20052;-71
2022/01/04 12:39:12;;;;;;;3.72;0.82;;;;;;;;;;5098657;28;20050;-70
2022/01/04 12:41:39;;;;;;;6.03;0.80;;;;;;;;;;5101037;28;20024;-71
2022/01/04 12:44:06;;;;;;;3.53;0.85;;;;;;;;;;5100797;28;20016;-71
2022/01/04 12:46:45;;;;;;;1.15;0.47;;;;;;;;;;5100867;28;20080;-71
2022/01/04 12:49:13;;;;;;;4.70;0.73;;;;;;;;;;5100959;28;20032;-71
2022/01/04 12:51:44;;;;;;;6.57;1.05;;;;;;;;;;5101165;28;20012;-71
2022/01/04 12:54:15;;;;;;;6.43;1.15;;;;;;;;;;5100877;28;20009;-71
2022/01/04 12:56:47;;;;;;;5.10;0.63;;;;;;;;;;5100636;28;20036;-71
2022/01/04 12:59:22;;;;;;;2.15;0.68;;;;;;;;;;5100110;28;20012;-72
2022/01/04 13:01:49;;;;;;;5.97;0.82;;;;;;;;;;5099973;28;20020;-71
2022/01/04 13:04:22;;;;;;;3.78;0.70;;;;;;;;;;5100951;28;20015;-71
2022/01/04 13:06:49;;;;;;;8.35;1.42;;;;;;;;;;5100512;28;20024;-70
2022/01/04 13:09:20;;;;;;;4.50;1.17;;;;;;;;;;5100617;28;20083;-71
2022/01/04 13:12:00;;;;;;;8.55;0.98;;;;;;;;;;5100050;28;20030;-71
2022/01/04 13:14:28;;;;;;;7.32;0.90;;;;;;;;;;5099755;28;20281;-71
2022/01/04 13:17:06;;;;;;;5.40;0.90;;;;;;;;;;5100775;28;20028;-71
2022/01/04 13:19:32;;;;;;;8.70;0.75;;;;;;;;;;5099623;28;20028;-71
2022/01/04 13:22:10;;;;;;;3.75;0.75;;;;;;;;;;5100549;28;20039;-71
2022/01/04 13:24:45;;;;;;;7.03;0.80;;;;;;;;;;5100479;28;20031;-71
2022/01/04 13:27:22;;;;;;;7.55;1.40;;;;;;;;;;5100156;28;20090;-70
2022/01/04 13:29:49;;;;;;;8.40;1.10;;;;;;;;;;5100363;28;20076;-71
2022/01/04 13:32:15;;;;;;;6.75;1.17;;;;;;;;;;5100439;28;20044;-71
2022/01/04 13:34:42;;;;;;;4.05;0.73;;;;;;;;;;5100305;28;20022;-71
2022/01/04 13:37:08;;;;;;;6.72;1.45;;;;;;;;;;5100214;28;20031;-71
2022/01/04 13:39:34;;;;;;;5.97;0.70;;;;;;;;;;5099190;28;20043;-70
2022/01/04 13:42:00;;;;;;;4.20;0.82;;;;;;;;;;5099881;28;20024;-71
2022/01/04 13:44:25;;;;;;;4.10;0.60;;;;;;;;;;5099676;28;20016;-71
2022/01/04 13:46:51;;;;;;;4.97;0.82;;;;;;;;;;5099555;28;20028;-71
2022/01/04 13:49:27;;;;;;;7.53;1.23;;;;;;;;;;5099531;28;20020;-71
2022/01/04 13:51:52;;;;;;;5.43;1.00;;;;;;;;;;5098519;28;20016;-70
2022/01/04 13:54:19;;;;;;;2.50;0.73;;;;;;;;;;5099752;28;20019;-71
2022/01/04 13:56:44;;;;;;;4.97;1.00;;;;;;;;;;5099007;28;20023;-70
2022/01/04 13:59:20;;;;;;;5.35;1.02;;;;;;;;;;5098642;28;20020;-70
2022/01/04 14:01:46;;;;;;;8.70;0.63;;;;;;;;;;5098396;28;20040;-71
2022/01/04 14:04:11;;;;;;;4.05;0.80;;;;;;;;;;5098657;28;20012;-71
2022/01/04 14:06:45;;;;;;;7.65;0.73;;;;;;;;;;5099008;28;20044;-71
2022/01/04 14:09:17;;;;;;;3.40;0.80;;;;;;;;;;5098171;28;20008;-71
2022/01/04 14:11:48;;;;;;;5.43;0.73;;;;;;;;;;5099521;28;20024;-70
2022/01/04 14:14:25;;;;;;;4.22;0.68;;;;;;;;;;5099487;28;20008;-71
2022/01/04 14:17:03;;;;;;;6.35;0.70;;;;;;;;;;5099297;28;20027;-70
2022/01/04 14:19:31;;;;;;;7.68;0.93;;;;;;;;;;5098480;28;20037;-71
2022/01/04 14:21:58;;;;;;;7.50;0.90;;;;;;;;;;5099316;28;20043;-70
2022/01/04 14:24:31;;;;;;;8.23;0.80;;;;;;;;;;5099334;28;20016;-70
2022/01/04 14:26:57;;;;;;;5.10;1.27;;;;;;;;;;5099176;28;20009;-71
2022/01/04 14:29:33;;;;;;;5.97;1.00;;;;;;;;;;5099115;28;20027;-70
2022/01/04 14:32:04;;;;;;;7.70;1.10;;;;;;;;;;5098641;28;20012;-72
2022/01/04 14:34:30;;;;;;;7.40;0.70;;;;;;;;;;5114981;28;20004;-70
2022/01/04 14:36:55;;;;;;;7.63;0.82;;;;;;;;;;5098501;28;20166;-70
2022/01/04 14:39:22;;;;;;;9.77;1.67;;;;;;;;;;5098833;28;20043;-70
2022/01/04 14:41:48;;;;;;;11.40;1.02;;;;;;;;;;5098446;28;20016;-71
2022/01/04 14:44:13;;;;;;;4.03;0.80;;;;;;;;;;5097951;28;20009;-70
2022/01/04 14:46:39;;;;;;;5.68;0.88;;;;;;;;;;5098370;28;20024;-71
2022/01/04 14:49:04;;;;;;;8.13;0.82;;;;;;;;;;5097624;28;20068;-70